sensor_id;sensor_type;location;lat;lon;timestamp;temperature;humidity
78904;DHT22;68291;49.602;8.722;2023-04-29T00:01:51;14.60;99.90
78904;DHT22;68291;49.602;8.722;2023-04-29T00:04:26;14.60;99.90
78904;DHT22;68291;49.602;8.722;2023-04-29T00:07:11;14.60;99.90
78904;DHT22;68291;49.602;8.722;2023-04-29T00:10:06;14.60;99.90
78904;DHT22;68291;49.602;8.722;2023-04-29T00:12:53;14.50;99.90
78904;DHT22;68291;49.602;8.722;2023-04-29T00:15:26;14.50;99.90
78904;DHT22;68291;49.602;8.722;2023-04-29T00:18:21;14.50;99.90
78904;DHT22;68291;49.602;8.722;2023-04-29T00:21:10;14.50;99.90
78904;DHT22;68291;49.602;8.722;2023-04-29T00:24:09;14.50;99.90
78904;DHT22;68291;49.602;8.722;2023-04-29T00:26:56;14.50;99.90
78904;DHT22;68291;49.602;8.722;2023-04-29T00:29:43;14.50;99.90
78904;DHT22;68291;49.602;8.722;2023-04-29T00:32:15;14.50;99.90
78904;DHT22;68291;49.602;8.722;2023-04-29T00:35:05;14.40;99.90
78904;DHT22;68291;49.602;8.722;2023-04-29T00:37:50;14.40;99.90
78904;DHT22;68291;49.602;8.722;2023-04-29T00:40:21;14.40;99.90
78904;DHT22;68291;49.602;8.722;2023-04-29T00:42:55;14.40;99.90
78904;DHT22;68291;49.602;8.722;2023-04-29T00:45:31;14.40;99.90
78904;DHT22;68291;49.602;8.722;2023-04-29T00:48:09;14.40;99.90
78904;DHT22;68291;49.602;8.722;2023-04-29T00:51:05;14.40;99.90
78904;DHT22;68291;49.602;8.722;2023-04-29T00:53:43;14.40;99.90
78904;DHT22;68291;49.602;8.722;2023-04-29T00:56:37;14.40;99.90
78904;DHT22;68291;49.602;8.722;2023-04-29T00:59:22;14.40;99.90
78904;DHT22;68291;49.602;8.722;2023-04-29T01:02:29;14.40;99.90
78904;DHT22;68291;49.602;8.722;2023-04-29T01:05:06;14.50;99.90
78904;DHT22;68291;49.602;8.722;2023-04-29T01:08:09;14.50;99.90
78904;DHT22;68291;49.602;8.722;2023-04-29T01:11:07;14.40;99.90
78904;DHT22;68291;49.602;8.722;2023-04-29T01:13:56;14.40;99.90
78904;DHT22;68291;49.602;8.722;2023-04-29T01:16:36;14.50;99.90
78904;DHT22;68291;49.602;8.722;2023-04-29T01:19:31;14.50;99.90
78904;DHT22;68291;49.602;8.722;2023-04-29T01:22:35;14.50;99.90
78904;DHT22;68291;49.602;8.722;2023-04-29T01:25:26;14.50;99.90
78904;DHT22;68291;49.602;8.722;2023-04-29T01:28:44;14.50;99.90
78904;DHT22;68291;49.602;8.722;2023-04-29T01:31:40;14.50;99.90
78904;DHT22;68291;49.602;8.722;2023-04-29T01:34:27;14.40;99.90
78904;DHT22;68291;49.602;8.722;2023-04-29T01:37:17;14.50;99.90
78904;DHT22;68291;49.602;8.722;2023-04-29T01:40:03;14.50;99.90
78904;DHT22;68291;49.602;8.722;2023-04-29T01:43:16;14.40;99.90
78904;DHT22;68291;49.602;8.722;2023-04-29T01:46:09;14.50;99.90
78904;DHT22;68291;49.602;8.722;2023-04-29T01:49:00;14.40;99.90
78904;DHT22;68291;49.602;8.722;2023-04-29T01:51:55;14.50;99.90
78904;DHT22;68291;49.602;8.722;2023-04-29T01:54:51;14.40;99.90
78904;DHT22;68291;49.602;8.722;2023-04-29T01:57:27;14.40;99.90
78904;DHT22;68291;49.602;8.722;2023-04-29T02:00:22;14.40;99.90
78904;DHT22;68291;49.602;8.722;2023-04-29T02:03:09;14.40;99.90
78904;DHT22;68291;49.602;8.722;2023-04-29T02:05:50;14.40;99.90
78904;DHT22;68291;49.602;8.722;2023-04-29T02:08:32;14.40;99.90
78904;DHT22;68291;49.602;8.722;2023-04-29T02:11:10;14.40;99.90
78904;DHT22;68291;49.602;8.722;2023-04-29T02:13:42;14.40;99.90
78904;DHT22;68291;49.602;8.722;2023-04-29T02:16:26;14.40;99.90
78904;DHT22;68291;49.602;8.722;2023-04-29T02:19:19;14.40;99.90
78904;DHT22;68291;49.602;8.722;2023-04-29T02:22:13;14.40;99.90
78904;DHT22;68291;49.602;8.722;2023-04-29T02:25:11;14.40;99.90
78904;DHT22;68291;49.602;8.722;2023-04-29T02:28:04;14.40;99.90
78904;DHT22;68291;49.602;8.722;2023-04-29T02:30:50;14.50;99.90
78904;DHT22;68291;49.602;8.722;2023-04-29T02:33:37;14.40;99.90
78904;DHT22;68291;49.602;8.722;2023-04-29T02:36:10;14.40;99.90
78904;DHT22;68291;49.602;8.722;2023-04-29T02:38:43;14.40;99.90
78904;DHT22;68291;49.602;8.722;2023-04-29T02:41:25;14.40;99.90
78904;DHT22;68291;49.602;8.722;2023-04-29T02:43:55;14.30;99.90
78904;DHT22;68291;49.602;8.722;2023-04-29T02:46:31;14.30;99.90
78904;DHT22;68291;49.602;8.722;2023-04-29T02:49:12;14.30;99.90
78904;DHT22;68291;49.602;8.722;2023-04-29T02:51:43;14.30;99.90
78904;DHT22;68291;49.602;8.722;2023-04-29T02:54:24;14.30;99.90
78904;DHT22;68291;49.602;8.722;2023-04-29T02:57:13;14.20;99.90
78904;DHT22;68291;49.602;8.722;2023-04-29T03:00:10;14.20;99.90
78904;DHT22;68291;49.602;8.722;2023-04-29T03:03:05;14.20;99.90
78904;DHT22;68291;49.602;8.722;2023-04-29T03:06:21;14.10;99.90
78904;DHT22;68291;49.602;8.722;2023-04-29T03:08:55;14.10;99.90
78904;DHT22;68291;49.602;8.722;2023-04-29T03:11:26;14.10;99.90
78904;DHT22;68291;49.602;8.722;2023-04-29T03:14:06;14.00;99.90
78904;DHT22;68291;49.602;8.722;2023-04-29T03:16:51;14.00;99.90
78904;DHT22;68291;49.602;8.722;2023-04-29T03:19:28;13.90;99.90
78904;DHT22;68291;49.602;8.722;2023-04-29T03:22:21;13.90;99.90
78904;DHT22;68291;49.602;8.722;2023-04-29T03:24:52;13.80;99.90
78904;DHT22;68291;49.602;8.722;2023-04-29T03:27:37;13.80;99.90
78904;DHT22;68291;49.602;8.722;2023-04-29T03:30:18;13.70;99.90
78904;DHT22;68291;49.602;8.722;2023-04-29T03:33:08;13.70;99.90
78904;DHT22;68291;49.602;8.722;2023-04-29T03:35:50;13.70;99.90
78904;DHT22;68291;49.602;8.722;2023-04-29T03:38:56;13.70;99.90
78904;DHT22;68291;49.602;8.722;2023-04-29T03:41:37;13.60;99.90
78904;DHT22;68291;49.602;8.722;2023-04-29T03:44:34;13.60;99.90
78904;DHT22;68291;49.602;8.722;2023-04-29T03:47:23;13.60;99.90
78904;DHT22;68291;49.602;8.722;2023-04-29T03:50:10;13.60;99.90
78904;DHT22;68291;49.602;8.722;2023-04-29T03:53:07;13.60;99.90
78904;DHT22;68291;49.602;8.722;2023-04-29T03:55:59;13.60;99.90
78904;DHT22;68291;49.602;8.722;2023-04-29T03:58:40;13.50;99.90
78904;DHT22;68291;49.602;8.722;2023-04-29T04:01:36;13.50;99.90
78904;DHT22;68291;49.602;8.722;2023-04-29T04:04:14;13.30;99.90
78904;DHT22;68291;49.602;8.722;2023-04-29T04:06:58;13.50;99.90
78904;DHT22;68291;49.602;8.722;2023-04-29T04:09:59;13.50;99.90
78904;DHT22;68291;49.602;8.722;2023-04-29T04:13:13;13.50;99.90
78904;DHT22;68291;49.602;8.722;2023-04-29T04:15:51;13.50;99.90
78904;DHT22;68291;49.602;8.722;2023-04-29T04:18:32;13.40;99.90
78904;DHT22;68291;49.602;8.722;2023-04-29T04:21:07;13.40;99.90
78904;DHT22;68291;49.602;8.722;2023-04-29T04:23:56;13.40;99.90
78904;DHT22;68291;49.602;8.722;2023-04-29T04:26:53;13.50;99.90
78904;DHT22;68291;49.602;8.722;2023-04-29T04:29:39;13.50;99.90
78904;DHT22;68291;49.602;8.722;2023-04-29T04:32:16;13.50;99.90
78904;DHT22;68291;49.602;8.722;2023-04-29T04:34:46;13.60;99.90
78904;DHT22;68291;49.602;8.722;2023-04-29T04:37:33;13.60;99.90
78904;DHT22;68291;49.602;8.722;2023-04-29T04:40:07;13.60;99.90
78904;DHT22;68291;49.602;8.722;2023-04-29T04:42:58;13.60;99.90
78904;DHT22;68291;49.602;8.722;2023-04-29T04:45:53;13.60;99.90
78904;DHT22;68291;49.602;8.722;2023-04-29T04:48:29;13.70;99.90
78904;DHT22;68291;49.602;8.722;2023-04-29T04:51:27;13.70;99.90
78904;DHT22;68291;49.602;8.722;2023-04-29T04:54:07;13.70;99.90
78904;DHT22;68291;49.602;8.722;2023-04-29T04:57:15;13.80;99.90
78904;DHT22;68291;49.602;8.722;2023-04-29T05:00:17;13.80;99.90
78904;DHT22;68291;49.602;8.722;2023-04-29T05:03:13;13.80;99.90
78904;DHT22;68291;49.602;8.722;2023-04-29T05:05:52;13.90;99.90
78904;DHT22;68291;49.602;8.722;2023-04-29T05:08:25;13.90;99.90
78904;DHT22;68291;49.602;8.722;2023-04-29T05:11:06;13.90;99.90
78904;DHT22;68291;49.602;8.722;2023-04-29T05:14:07;14.00;99.90
78904;DHT22;68291;49.602;8.722;2023-04-29T05:17:04;14.00;99.90
78904;DHT22;68291;49.602;8.722;2023-04-29T05:19:48;14.10;99.90
78904;DHT22;68291;49.602;8.722;2023-04-29T05:22:38;14.10;99.90
78904;DHT22;68291;49.602;8.722;2023-04-29T05:25:25;14.20;99.90
78904;DHT22;68291;49.602;8.722;2023-04-29T05:28:21;14.20;99.90
78904;DHT22;68291;49.602;8.722;2023-04-29T05:30:56;14.30;99.90
78904;DHT22;68291;49.602;8.722;2023-04-29T05:33:31;14.30;99.90
78904;DHT22;68291;49.602;8.722;2023-04-29T05:36:27;14.30;99.90
78904;DHT22;68291;49.602;8.722;2023-04-29T05:39:00;14.40;99.90
78904;DHT22;68291;49.602;8.722;2023-04-29T05:41:33;14.40;99.90
78904;DHT22;68291;49.602;8.722;2023-04-29T05:44:23;14.40;99.90
78904;DHT22;68291;49.602;8.722;2023-04-29T05:47:21;14.50;99.90
78904;DHT22;68291;49.602;8.722;2023-04-29T05:50:18;14.50;99.90
78904;DHT22;68291;49.602;8.722;2023-04-29T05:53:14;14.50;99.90
78904;DHT22;68291;49.602;8.722;2023-04-29T05:56:04;14.60;99.90
78904;DHT22;68291;49.602;8.722;2023-04-29T05:58:36;14.60;99.90
78904;DHT22;68291;49.602;8.722;2023-04-29T06:01:25;14.60;99.90
78904;DHT22;68291;49.602;8.722;2023-04-29T06:04:04;14.70;99.90
78904;DHT22;68291;49.602;8.722;2023-04-29T06:07:00;14.70;99.90
78904;DHT22;68291;49.602;8.722;2023-04-29T06:10:24;14.80;99.90
78904;DHT22;68291;49.602;8.722;2023-04-29T06:13:17;14.80;99.90
78904;DHT22;68291;49.602;8.722;2023-04-29T06:16:11;14.90;99.90
78904;DHT22;68291;49.602;8.722;2023-04-29T06:18:56;14.90;99.90
78904;DHT22;68291;49.602;8.722;2023-04-29T06:21:46;14.90;99.90
78904;DHT22;68291;49.602;8.722;2023-04-29T06:24:25;15.00;99.90
78904;DHT22;68291;49.602;8.722;2023-04-29T06:27:18;15.00;99.90
78904;DHT22;68291;49.602;8.722;2023-04-29T06:30:01;15.00;99.90
78904;DHT22;68291;49.602;8.722;2023-04-29T06:32:43;15.10;99.90
78904;DHT22;68291;49.602;8.722;2023-04-29T06:35:24;15.10;99.90
78904;DHT22;68291;49.602;8.722;2023-04-29T06:38:21;15.10;99.90
78904;DHT22;68291;49.602;8.722;2023-04-29T06:41:19;15.20;99.90
78904;DHT22;68291;49.602;8.722;2023-04-29T06:44:09;15.20;99.90
78904;DHT22;68291;49.602;8.722;2023-04-29T06:47:15;15.20;99.90
78904;DHT22;68291;49.602;8.722;2023-04-29T06:50:10;15.30;99.90
78904;DHT22;68291;49.602;8.722;2023-04-29T06:52:50;15.30;99.90
78904;DHT22;68291;49.602;8.722;2023-04-29T06:55:41;15.30;99.90
78904;DHT22;68291;49.602;8.722;2023-04-29T06:58:33;15.40;99.90
78904;DHT22;68291;49.602;8.722;2023-04-29T07:01:20;15.40;99.90
78904;DHT22;68291;49.602;8.722;2023-04-29T07:03:59;15.40;99.90
78904;DHT22;68291;49.602;8.722;2023-04-29T07:06:33;15.40;99.90
78904;DHT22;68291;49.602;8.722;2023-04-29T07:09:04;15.50;99.90
78904;DHT22;68291;49.602;8.722;2023-04-29T07:11:53;15.50;99.90
78904;DHT22;68291;49.602;8.722;2023-04-29T07:14:38;15.50;99.90
78904;DHT22;68291;49.602;8.722;2023-04-29T07:17:29;15.60;99.90
78904;DHT22;68291;49.602;8.722;2023-04-29T07:20:18;15.60;99.90
78904;DHT22;68291;49.602;8.722;2023-04-29T07:22:58;15.60;99.90
78904;DHT22;68291;49.602;8.722;2023-04-29T07:25:50;15.60;99.90
78904;DHT22;68291;49.602;8.722;2023-04-29T07:28:45;15.60;99.90
78904;DHT22;68291;49.602;8.722;2023-04-29T07:31:40;15.60;99.90
78904;DHT22;68291;49.602;8.722;2023-04-29T07:34:30;15.60;99.90
78904;DHT22;68291;49.602;8.722;2023-04-29T07:37:28;15.70;99.90
78904;DHT22;68291;49.602;8.722;2023-04-29T07:40:00;15.70;99.90
78904;DHT22;68291;49.602;8.722;2023-04-29T07:42:39;15.80;99.90
78904;DHT22;68291;49.602;8.722;2023-04-29T07:45:12;15.80;99.90
78904;DHT22;68291;49.602;8.722;2023-04-29T07:47:46;15.90;99.90
78904;DHT22;68291;49.602;8.722;2023-04-29T07:50:33;15.90;99.90
78904;DHT22;68291;49.602;8.722;2023-04-29T07:53:14;16.00;99.90
78904;DHT22;68291;49.602;8.722;2023-04-29T07:55:45;16.00;99.90
78904;DHT22;68291;49.602;8.722;2023-04-29T07:58:18;16.10;99.90
78904;DHT22;68291;49.602;8.722;2023-04-29T08:01:06;16.20;99.90
78904;DHT22;68291;49.602;8.722;2023-04-29T08:03:56;16.20;99.90
78904;DHT22;68291;49.602;8.722;2023-04-29T08:06:31;16.30;99.90
78904;DHT22;68291;49.602;8.722;2023-04-29T08:09:28;16.40;99.90
78904;DHT22;68291;49.602;8.722;2023-04-29T08:12:25;16.40;99.90
78904;DHT22;68291;49.602;8.722;2023-04-29T08:15:15;16.50;99.90
78904;DHT22;68291;49.602;8.722;2023-04-29T08:17:53;16.50;99.90
78904;DHT22;68291;49.602;8.722;2023-04-29T08:20:30;16.50;99.90
78904;DHT22;68291;49.602;8.722;2023-04-29T08:23:33;16.50;99.90
78904;DHT22;68291;49.602;8.722;2023-04-29T08:26:11;16.60;99.90
78904;DHT22;68291;49.602;8.722;2023-04-29T08:28:41;16.60;99.90
78904;DHT22;68291;49.602;8.722;2023-04-29T08:31:22;16.70;99.90
78904;DHT22;68291;49.602;8.722;2023-04-29T08:33:52;16.70;99.90
78904;DHT22;68291;49.602;8.722;2023-04-29T08:36:22;16.80;99.90
78904;DHT22;68291;49.602;8.722;2023-04-29T08:38:55;16.90;99.90
78904;DHT22;68291;49.602;8.722;2023-04-29T08:41:32;16.90;99.90
78904;DHT22;68291;49.602;8.722;2023-04-29T08:44:14;16.90;99.90
78904;DHT22;68291;49.602;8.722;2023-04-29T08:46:49;16.90;99.90
78904;DHT22;68291;49.602;8.722;2023-04-29T08:49:27;16.90;99.90
78904;DHT22;68291;49.602;8.722;2023-04-29T08:52:05;16.90;99.90
78904;DHT22;68291;49.602;8.722;2023-04-29T08:54:41;17.00;99.90
78904;DHT22;68291;49.602;8.722;2023-04-29T08:57:25;17.00;99.90
78904;DHT22;68291;49.602;8.722;2023-04-29T09:00:17;17.10;99.90
78904;DHT22;68291;49.602;8.722;2023-04-29T09:02:51;17.10;99.90
78904;DHT22;68291;49.602;8.722;2023-04-29T09:05:26;17.20;99.90
78904;DHT22;68291;49.602;8.722;2023-04-29T09:08:15;17.10;99.90
78904;DHT22;68291;49.602;8.722;2023-04-29T09:11:02;17.10;99.90
78904;DHT22;68291;49.602;8.722;2023-04-29T09:13:58;17.10;99.90
78904;DHT22;68291;49.602;8.722;2023-04-29T09:16:29;17.10;99.90
78904;DHT22;68291;49.602;8.722;2023-04-29T09:19:02;17.00;99.90
78904;DHT22;68291;49.602;8.722;2023-04-29T09:21:41;17.00;99.90
78904;DHT22;68291;49.602;8.722;2023-04-29T09:24:25;17.00;99.90
78904;DHT22;68291;49.602;8.722;2023-04-29T09:26:59;17.00;99.90
78904;DHT22;68291;49.602;8.722;2023-04-29T09:29:59;17.00;99.90
78904;DHT22;68291;49.602;8.722;2023-04-29T09:32:31;17.00;99.90
78904;DHT22;68291;49.602;8.722;2023-04-29T09:35:26;17.00;99.90
78904;DHT22;68291;49.602;8.722;2023-04-29T09:38:11;17.10;99.90
78904;DHT22;68291;49.602;8.722;2023-04-29T09:40:43;17.10;99.90
78904;DHT22;68291;49.602;8.722;2023-04-29T09:43:43;17.10;99.90
78904;DHT22;68291;49.602;8.722;2023-04-29T09:46:22;17.20;99.90
78904;DHT22;68291;49.602;8.722;2023-04-29T09:49:01;17.20;99.90
78904;DHT22;68291;49.602;8.722;2023-04-29T09:51:51;17.30;99.90
78904;DHT22;68291;49.602;8.722;2023-04-29T09:54:34;17.30;99.90
78904;DHT22;68291;49.602;8.722;2023-04-29T09:57:38;17.40;99.90
78904;DHT22;68291;49.602;8.722;2023-04-29T10:00:20;17.50;99.90
78904;DHT22;68291;49.602;8.722;2023-04-29T10:03:10;17.60;99.90
78904;DHT22;68291;49.602;8.722;2023-04-29T10:05:50;17.70;99.90
78904;DHT22;68291;49.602;8.722;2023-04-29T10:08:34;17.80;99.90
78904;DHT22;68291;49.602;8.722;2023-04-29T10:11:16;17.90;99.90
78904;DHT22;68291;49.602;8.722;2023-04-29T10:13:52;18.00;99.90
78904;DHT22;68291;49.602;8.722;2023-04-29T10:16:35;18.00;99.90
78904;DHT22;68291;49.602;8.722;2023-04-29T10:19:32;18.10;99.90
78904;DHT22;68291;49.602;8.722;2023-04-29T10:22:28;18.10;99.90
78904;DHT22;68291;49.602;8.722;2023-04-29T10:25:12;18.10;99.90
78904;DHT22;68291;49.602;8.722;2023-04-29T10:27:54;18.00;99.90
78904;DHT22;68291;49.602;8.722;2023-04-29T10:30:35;18.00;99.90
78904;DHT22;68291;49.602;8.722;2023-04-29T10:33:22;17.90;99.90
78904;DHT22;68291;49.602;8.722;2023-04-29T10:35:55;17.90;99.90
78904;DHT22;68291;49.602;8.722;2023-04-29T10:38:41;17.80;99.90
78904;DHT22;68291;49.602;8.722;2023-04-29T10:41:36;17.80;99.90
78904;DHT22;68291;49.602;8.722;2023-04-29T10:44:18;17.80;99.90
78904;DHT22;68291;49.602;8.722;2023-04-29T10:47:22;17.70;99.90
78904;DHT22;68291;49.602;8.722;2023-04-29T10:50:10;17.70;99.90
78904;DHT22;68291;49.602;8.722;2023-04-29T10:52:51;17.70;99.90
78904;DHT22;68291;49.602;8.722;2023-04-29T10:55:26;17.80;99.90
78904;DHT22;68291;49.602;8.722;2023-04-29T10:58:04;17.80;99.90
78904;DHT22;68291;49.602;8.722;2023-04-29T11:00:37;17.90;99.90
78904;DHT22;68291;49.602;8.722;2023-04-29T11:03:44;17.90;99.90
78904;DHT22;68291;49.602;8.722;2023-04-29T11:06:41;18.00;99.90
78904;DHT22;68291;49.602;8.722;2023-04-29T11:09:23;18.00;99.90
78904;DHT22;68291;49.602;8.722;2023-04-29T11:12:08;18.00;99.90
78904;DHT22;68291;49.602;8.722;2023-04-29T11:14:50;18.00;99.90
78904;DHT22;68291;49.602;8.722;2023-04-29T11:17:35;18.00;99.90
78904;DHT22;68291;49.602;8.722;2023-04-29T11:20:19;18.00;99.90
78904;DHT22;68291;49.602;8.722;2023-04-29T11:23:10;18.00;99.90
78904;DHT22;68291;49.602;8.722;2023-04-29T11:26:00;17.90;99.90
78904;DHT22;68291;49.602;8.722;2023-04-29T11:28:37;17.90;99.90
78904;DHT22;68291;49.602;8.722;2023-04-29T11:31:31;17.90;99.90
78904;DHT22;68291;49.602;8.722;2023-04-29T11:34:05;18.00;99.90
78904;DHT22;68291;49.602;8.722;2023-04-29T11:36:50;18.00;99.90
78904;DHT22;68291;49.602;8.722;2023-04-29T11:39:48;18.10;99.90
78904;DHT22;68291;49.602;8.722;2023-04-29T11:42:34;18.10;99.90
78904;DHT22;68291;49.602;8.722;2023-04-29T11:45:10;18.10;99.90
78904;DHT22;68291;49.602;8.722;2023-04-29T11:48:02;18.20;99.90
78904;DHT22;68291;49.602;8.722;2023-04-29T11:50:50;18.30;99.90
78904;DHT22;68291;49.602;8.722;2023-04-29T11:53:44;18.50;99.90
78904;DHT22;68291;49.602;8.722;2023-04-29T11:56:50;18.50;99.90
78904;DHT22;68291;49.602;8.722;2023-04-29T11:59:28;18.50;99.90
78904;DHT22;68291;49.602;8.722;2023-04-29T12:02:16;18.60;99.90
78904;DHT22;68291;49.602;8.722;2023-04-29T12:04:49;18.70;99.90
78904;DHT22;68291;49.602;8.722;2023-04-29T12:07:31;18.70;99.90
78904;DHT22;68291;49.602;8.722;2023-04-29T12:10:22;18.80;99.90
78904;DHT22;68291;49.602;8.722;2023-04-29T12:13:35;18.80;99.90
78904;DHT22;68291;49.602;8.722;2023-04-29T12:16:17;18.80;99.90
78904;DHT22;68291;49.602;8.722;2023-04-29T12:19:11;18.90;99.90
78904;DHT22;68291;49.602;8.722;2023-04-29T12:21:50;18.90;99.90
78904;DHT22;68291;49.602;8.722;2023-04-29T12:24:25;19.00;99.90
78904;DHT22;68291;49.602;8.722;2023-04-29T12:27:03;19.00;99.90
78904;DHT22;68291;49.602;8.722;2023-04-29T12:29:40;19.10;99.90
78904;DHT22;68291;49.602;8.722;2023-04-29T12:32:24;19.10;99.90
78904;DHT22;68291;49.602;8.722;2023-04-29T12:35:20;19.20;99.90
78904;DHT22;68291;49.602;8.722;2023-04-29T12:38:19;19.30;99.90
78904;DHT22;68291;49.602;8.722;2023-04-29T12:41:12;19.40;99.90
78904;DHT22;68291;49.602;8.722;2023-04-29T12:44:02;19.50;99.90
78904;DHT22;68291;49.602;8.722;2023-04-29T12:47:14;19.60;99.90
78904;DHT22;68291;49.602;8.722;2023-04-29T12:50:09;19.80;99.90
78904;DHT22;68291;49.602;8.722;2023-04-29T12:52:49;19.80;99.90
78904;DHT22;68291;49.602;8.722;2023-04-29T12:55:37;19.80;99.90
78904;DHT22;68291;49.602;8.722;2023-04-29T12:58:10;19.60;99.90
78904;DHT22;68291;49.602;8.722;2023-04-29T13:00:52;19.50;99.90
78904;DHT22;68291;49.602;8.722;2023-04-29T13:03:43;19.40;99.90
78904;DHT22;68291;49.602;8.722;2023-04-29T13:06:27;19.30;99.90
78904;DHT22;68291;49.602;8.722;2023-04-29T13:09:18;19.20;99.90
78904;DHT22;68291;49.602;8.722;2023-04-29T13:12:10;19.10;99.90
78904;DHT22;68291;49.602;8.722;2023-04-29T13:14:40;19.10;99.90
78904;DHT22;68291;49.602;8.722;2023-04-29T13:17:35;19.10;99.90
78904;DHT22;68291;49.602;8.722;2023-04-29T13:20:31;19.10;99.90
78904;DHT22;68291;49.602;8.722;2023-04-29T13:23:18;19.10;99.90
78904;DHT22;68291;49.602;8.722;2023-04-29T13:26:11;19.10;99.90
78904;DHT22;68291;49.602;8.722;2023-04-29T13:28:53;19.00;99.90
78904;DHT22;68291;49.602;8.722;2023-04-29T13:31:30;19.00;99.90
78904;DHT22;68291;49.602;8.722;2023-04-29T13:34:10;19.00;99.90
78904;DHT22;68291;49.602;8.722;2023-04-29T13:36:46;18.90;99.90
78904;DHT22;68291;49.602;8.722;2023-04-29T13:39:23;18.90;99.90
78904;DHT22;68291;49.602;8.722;2023-04-29T13:42:19;18.90;99.90
78904;DHT22;68291;49.602;8.722;2023-04-29T13:44:59;18.90;99.90
78904;DHT22;68291;49.602;8.722;2023-04-29T13:47:39;18.90;99.90
78904;DHT22;68291;49.602;8.722;2023-04-29T13:50:32;18.90;99.90
78904;DHT22;68291;49.602;8.722;2023-04-29T13:53:36;19.00;99.90
78904;DHT22;68291;49.602;8.722;2023-04-29T13:56:28;19.00;99.90
78904;DHT22;68291;49.602;8.722;2023-04-29T13:59:11;19.00;99.90
78904;DHT22;68291;49.602;8.722;2023-04-29T14:02:07;19.20;99.90
78904;DHT22;68291;49.602;8.722;2023-04-29T14:05:03;19.50;99.90
78904;DHT22;68291;49.602;8.722;2023-04-29T14:07:59;19.90;99.90
78904;DHT22;68291;49.602;8.722;2023-04-29T14:10:42;20.20;99.90
78904;DHT22;68291;49.602;8.722;2023-04-29T14:13:20;20.50;99.90
78904;DHT22;68291;49.602;8.722;2023-04-29T14:16:02;20.90;99.90
78904;DHT22;68291;49.602;8.722;2023-04-29T14:18:39;21.10;99.90
78904;DHT22;68291;49.602;8.722;2023-04-29T14:21:26;21.20;99.90
78904;DHT22;68291;49.602;8.722;2023-04-29T14:23:59;21.10;99.90
78904;DHT22;68291;49.602;8.722;2023-04-29T14:26:43;21.00;99.90
78904;DHT22;68291;49.602;8.722;2023-04-29T14:29:23;20.90;99.90
78904;DHT22;68291;49.602;8.722;2023-04-29T14:32:15;20.70;99.90
78904;DHT22;68291;49.602;8.722;2023-04-29T14:35:01;20.50;99.90
78904;DHT22;68291;49.602;8.722;2023-04-29T14:37:37;20.30;99.90
78904;DHT22;68291;49.602;8.722;2023-04-29T14:40:28;20.20;99.90
78904;DHT22;68291;49.602;8.722;2023-04-29T14:43:25;20.00;99.90
78904;DHT22;68291;49.602;8.722;2023-04-29T14:45:56;19.80;99.90
78904;DHT22;68291;49.602;8.722;2023-04-29T14:48:42;19.70;99.90
78904;DHT22;68291;49.602;8.722;2023-04-29T14:51:29;19.50;99.90
78904;DHT22;68291;49.602;8.722;2023-04-29T14:54:16;19.40;99.90
78904;DHT22;68291;49.602;8.722;2023-04-29T14:56:57;19.30;99.90
78904;DHT22;68291;49.602;8.722;2023-04-29T14:59:49;19.20;99.90
78904;DHT22;68291;49.602;8.722;2023-04-29T15:02:38;19.10;99.90
78904;DHT22;68291;49.602;8.722;2023-04-29T15:05:15;19.00;99.90
78904;DHT22;68291;49.602;8.722;2023-04-29T15:08:05;18.80;99.90
78904;DHT22;68291;49.602;8.722;2023-04-29T15:10:48;18.80;99.90
78904;DHT22;68291;49.602;8.722;2023-04-29T15:13:41;18.70;99.90
78904;DHT22;68291;49.602;8.722;2023-04-29T15:16:29;18.50;99.90
78904;DHT22;68291;49.602;8.722;2023-04-29T15:19:03;18.50;99.90
78904;DHT22;68291;49.602;8.722;2023-04-29T15:21:44;18.40;99.90
78904;DHT22;68291;49.602;8.722;2023-04-29T15:24:16;18.40;99.90
78904;DHT22;68291;49.602;8.722;2023-04-29T15:26:59;18.30;99.90
78904;DHT22;68291;49.602;8.722;2023-04-29T15:29:30;18.30;99.90
78904;DHT22;68291;49.602;8.722;2023-04-29T15:32:35;18.30;99.90
78904;DHT22;68291;49.602;8.722;2023-04-29T15:35:10;18.20;99.90
78904;DHT22;68291;49.602;8.722;2023-04-29T15:37:57;18.10;99.90
78904;DHT22;68291;49.602;8.722;2023-04-29T15:40:45;18.10;99.90
78904;DHT22;68291;49.602;8.722;2023-04-29T15:43:16;18.10;99.90
78904;DHT22;68291;49.602;8.722;2023-04-29T15:46:02;18.10;99.90
78904;DHT22;68291;49.602;8.722;2023-04-29T15:49:08;18.00;99.90
78904;DHT22;68291;49.602;8.722;2023-04-29T15:51:53;18.00;99.90
78904;DHT22;68291;49.602;8.722;2023-04-29T15:54:24;18.00;99.90
78904;DHT22;68291;49.602;8.722;2023-04-29T15:57:12;18.00;99.90
78904;DHT22;68291;49.602;8.722;2023-04-29T16:00:09;17.90;99.90
78904;DHT22;68291;49.602;8.722;2023-04-29T16:02:50;17.90;99.90
78904;DHT22;68291;49.602;8.722;2023-04-29T16:05:55;17.90;99.90
78904;DHT22;68291;49.602;8.722;2023-04-29T16:08:42;17.90;99.90
78904;DHT22;68291;49.602;8.722;2023-04-29T16:11:15;17.90;99.90
78904;DHT22;68291;49.602;8.722;2023-04-29T16:14:11;17.90;99.90
78904;DHT22;68291;49.602;8.722;2023-04-29T16:16:44;17.90;99.90
78904;DHT22;68291;49.602;8.722;2023-04-29T16:19:39;17.90;99.90
78904;DHT22;68291;49.602;8.722;2023-04-29T16:22:11;17.90;99.90
78904;DHT22;68291;49.602;8.722;2023-04-29T16:24:53;18.00;99.90
78904;DHT22;68291;49.602;8.722;2023-04-29T16:27:26;18.00;99.90
78904;DHT22;68291;49.602;8.722;2023-04-29T16:30:13;18.10;99.90
78904;DHT22;68291;49.602;8.722;2023-04-29T16:33:07;18.20;99.90
78904;DHT22;68291;49.602;8.722;2023-04-29T16:35:48;18.20;99.90
78904;DHT22;68291;49.602;8.722;2023-04-29T16:41:54;18.20;99.90
78904;DHT22;68291;49.602;8.722;2023-04-29T16:44:37;18.30;99.90
78904;DHT22;68291;49.602;8.722;2023-04-29T16:47:10;18.30;99.90
78904;DHT22;68291;49.602;8.722;2023-04-29T16:49:56;18.30;99.90
78904;DHT22;68291;49.602;8.722;2023-04-29T16:52:30;18.30;99.90
78904;DHT22;68291;49.602;8.722;2023-04-29T16:55:32;18.20;99.90
78904;DHT22;68291;49.602;8.722;2023-04-29T16:58:22;18.20;99.90
78904;DHT22;68291;49.602;8.722;2023-04-29T17:01:19;18.20;99.90
78904;DHT22;68291;49.602;8.722;2023-04-29T17:04:16;18.20;99.90
78904;DHT22;68291;49.602;8.722;2023-04-29T17:07:04;18.10;99.90
78904;DHT22;68291;49.602;8.722;2023-04-29T17:09:41;18.10;99.90
78904;DHT22;68291;49.602;8.722;2023-04-29T17:12:32;18.10;99.90
78904;DHT22;68291;49.602;8.722;2023-04-29T17:15:10;18.00;99.90
78904;DHT22;68291;49.602;8.722;2023-04-29T17:18:00;18.00;99.90
78904;DHT22;68291;49.602;8.722;2023-04-29T17:20:56;18.00;99.90
78904;DHT22;68291;49.602;8.722;2023-04-29T17:23:53;18.00;99.90
78904;DHT22;68291;49.602;8.722;2023-04-29T17:26:43;17.90;99.90
78904;DHT22;68291;49.602;8.722;2023-04-29T17:29:41;17.90;99.90
78904;DHT22;68291;49.602;8.722;2023-04-29T17:32:17;17.80;99.90